Time;durP1;ratioP1;P1;durP2;ratioP2;P2;SDS_P1;SDS_P2;PMS_P1;PMS_P2;Temp;Humidity;BMP_temperature;BMP_pressure;BME280_temperature;BME280_humidity;BME280_pressure;Samples;Min_cycle;Max_cycle;Signal;HPM_P1;HPM_P2
2022/10/04 00:01:47;;;;;;;28.35;22.48;;;16.60;79.20;;;;;;5033419;28;20044;-16
2022/10/04 00:04:16;;;;;;;29.67;23.58;;;16.50;79.10;;;;;;5033714;28;20036;-17
2022/10/04 00:06:52;;;;;;;26.33;20.95;;;16.50;79.20;;;;;;5033951;28;20021;-16
2022/10/04 00:09:22;;;;;;;39.55;27.95;;;16.50;79.10;;;;;;5033812;28;20033;-15
2022/10/04 00:11:52;;;;;;;32.42;24.73;;;16.40;79.10;;;;;;5033230;28;20052;-16
2022/10/04 00:14:27;;;;;;;33.15;24.63;;;16.40;79.20;;;;;;5033101;28;20504;-18
2022/10/04 00:16:55;;;;;;;27.13;20.55;;;16.30;79.20;;;;;;5032970;28;20025;-15
2022/10/04 00:19:39;;;;;;;28.92;23.77;;;16.30;79.40;;;;;;5033132;28;20047;-16
2022/10/04 00:22:07;;;;;;;29.10;22.98;;;16.20;79.40;;;;;;5015525;28;20026;-15
2022/10/04 00:24:35;;;;;;;27.30;22.73;;;16.20;79.50;;;;;;5033404;28;20026;-16
2022/10/04 00:27:19;;;;;;;36.55;25.80;;;16.10;79.40;;;;;;5032912;28;20033;-16
2022/10/04 00:30:05;;;;;;;31.63;24.30;;;16.10;79.50;;;;;;5032912;28;20034;-16
2022/10/04 00:33:06;;;;;;;29.75;23.45;;;16.10;79.70;;;;;;5032944;28;20505;-15
2022/10/04 00:35:34;;;;;;;30.50;23.67;;;16.10;79.60;;;;;;5033057;28;20029;-15
2022/10/04 00:38:06;;;;;;;30.08;22.95;;;16.10;79.50;;;;;;5033288;28;20034;-15
2022/10/04 00:40:50;;;;;;;33.40;24.42;;;16.10;79.50;;;;;;5015206;28;20068;-16
2022/10/04 00:43:45;;;;;;;29.33;23.70;;;16.00;79.50;;;;;;5033022;28;20029;-17
2022/10/04 00:46:17;;;;;;;29.27;21.20;;;16.00;79.70;;;;;;5015556;28;20024;-16
2022/10/04 00:48:55;;;;;;;24.83;19.43;;;15.90;79.50;;;;;;5032806;28;20069;-15
2022/10/04 00:51:42;;;;;;;28.48;21.10;;;15.90;79.40;;;;;;5033229;28;20048;-15
2022/10/04 00:54:21;;;;;;;27.35;21.52;;;15.80;79.30;;;;;;5033026;28;20436;-15
2022/10/04 00:56:59;;;;;;;24.23;18.75;;;15.70;79.20;;;;;;5032957;28;20358;-16
2022/10/04 00:59:46;;;;;;;39.00;29.38;;;15.60;79.20;;;;;;5036903;28;20138;-16
2022/10/04 01:02:44;;;;;;;31.73;24.02;;;15.50;79.40;;;;;;5037059;28;20021;-16
2022/10/04 01:05:29;;;;;;;34.90;25.35;;;15.40;79.50;;;;;;5033037;28;20038;-16
2022/10/04 01:08:30;;;;;;;23.08;18.08;;;15.30;79.70;;;;;;5037049;28;20053;-16
2022/10/04 01:11:09;;;;;;;33.53;25.58;;;15.20;79.80;;;;;;5033138;28;20057;-16
2022/10/04 01:13:47;;;;;;;30.63;24.02;;;15.20;80.50;;;;;;5036557;28;20033;-16
2022/10/04 01:16:47;;;;;;;25.35;20.30;;;15.10;80.40;;;;;;5036714;28;20060;-16
2022/10/04 01:19:22;;;;;;;30.73;23.20;;;15.10;80.30;;;;;;4956334;29;20038;-15
2022/10/04 01:22:06;;;;;;;28.40;20.85;;;15.00;80.20;;;;;;4956282;28;20039;-15
2022/10/04 01:24:34;;;;;;;;;;;14.90;80.20;;;;;;4956473;29;20126;-15
2022/10/04 01:27:00;;;;;;;29.45;22.52;;;14.90;81.20;;;;;;4956003;29;19938;-15
2022/10/04 01:29:30;;;;;;;34.17;26.00;;;14.80;80.80;;;;;;4956337;29;20051;-15
2022/10/04 01:31:59;;;;;;;35.38;24.20;;;14.80;81.30;;;;;;4955939;29;20035;-15
2022/10/04 01:34:29;;;;;;;33.10;23.65;;;14.70;81.40;;;;;;4956154;29;20027;-15
2022/10/04 01:37:00;;;;;;;37.70;28.20;;;14.70;80.90;;;;;;4955822;29;20043;-15
2022/10/04 01:39:27;;;;;;;34.10;26.30;;;14.70;81.90;;;;;;4956293;29;20038;-15
2022/10/04 01:41:56;;;;;;;41.30;28.38;;;14.60;82.00;;;;;;4956313;29;20448;-15
2022/10/04 01:45:00;;;;;;;41.20;28.70;;;14.60;82.70;;;;;;4955793;29;20423;-16
2022/10/04 01:47:59;;;;;;;37.95;27.17;;;14.60;83.20;;;;;;4953288;29;20027;-15
2022/10/04 01:50:36;;;;;;;35.22;25.27;;;14.50;84.00;;;;;;4955670;29;20046;-15
2022/10/04 01:53:14;;;;;;;38.70;27.50;;;14.60;84.50;;;;;;4955530;29;20064;-15
2022/10/04 01:55:44;;;;;;;40.40;27.63;;;14.60;85.10;;;;;;5025049;28;20051;-15
2022/10/04 01:58:17;;;;;;;31.83;22.55;;;14.60;85.40;;;;;;5036551;28;20033;-16
2022/10/04 02:01:06;;;;;;;29.67;22.05;;;14.60;85.10;;;;;;5035984;28;20032;-16
2022/10/04 02:03:46;;;;;;;29.83;21.33;;;14.60;84.50;;;;;;5036019;28;20481;-14
2022/10/04 02:06:14;;;;;;;29.83;22.85;;;14.60;85.10;;;;;;5035590;28;20493;-17
2022/10/04 02:08:48;;;;;;;26.02;18.15;;;14.60;84.80;;;;;;5035266;28;20029;-15
2022/10/04 02:11:20;;;;;;;30.08;21.23;;;14.60;83.90;;;;;;5034915;28;20054;-15
2022/10/04 02:13:50;;;;;;;27.73;20.10;;;14.60;83.80;;;;;;5036317;28;20052;-16
2022/10/04 02:16:19;;;;;;;24.92;18.48;;;14.60;83.80;;;;;;5035299;28;20029;-16
2022/10/04 02:18:46;;;;;;;24.58;17.92;;;14.60;83.80;;;;;;5035286;28;20061;-16
2022/10/04 02:21:14;;;;;;;24.73;17.48;;;14.60;83.80;;;;;;5035134;28;20048;-16
2022/10/04 02:23:42;;;;;;;22.10;15.75;;;14.50;83.50;;;;;;5035469;28;20040;-16
2022/10/04 02:26:09;;;;;;;26.92;18.98;;;14.50;83.20;;;;;;5035373;28;20028;-16
2022/10/04 02:28:36;;;;;;;22.63;17.15;;;14.50;83.20;;;;;;5035368;28;20026;-15
2022/10/04 02:33:51;;;;;;;19.38;15.30;;;14.50;82.80;;;;;;5035764;28;20087;-15
2022/10/04 02:36:20;;;;;;;24.83;18.70;;;14.50;82.80;;;;;;5034982;28;20478;-14
2022/10/04 02:38:59;;;;;;;30.58;21.77;;;14.50;83.20;;;;;;5034933;28;20025;-15
2022/10/04 02:41:45;;;;;;;25.10;18.30;;;14.40;83.70;;;;;;5035176;28;20456;-15
2022/10/04 02:44:14;;;;;;;28.38;20.17;;;14.40;83.40;;;;;;5034829;28;20030;-17
2022/10/04 02:46:56;;;;;;;25.27;18.08;;;14.40;83.20;;;;;;5034736;28;20034;-16
2022/10/04 02:49:28;;;;;;;24.23;17.10;;;14.40;82.90;;;;;;5017788;28;20120;-17
2022/10/04 02:52:24;;;;;;;30.88;21.27;;;14.40;83.30;;;;;;5034764;28;20485;-15
2022/10/04 02:55:11;;;;;;;25.30;17.60;;;14.40;84.30;;;;;;5027973;28;20076;-16
2022/10/04 02:57:41;;;;;;;27.52;20.25;;;14.40;84.30;;;;;;5035288;28;20083;-15
2022/10/04 03:00:13;;;;;;;25.38;18.70;;;14.50;84.80;;;;;;5034510;28;20129;-15
2022/10/04 03:02:39;;;;;;;24.23;18.50;;;14.50;84.50;;;;;;5034656;28;20087;-15
2022/10/04 03:05:12;;;;;;;25.02;17.58;;;14.50;84.60;;;;;;5034539;28;20021;-16
2022/10/04 03:07:39;;;;;;;19.33;14.27;;;14.60;84.10;;;;;;5034425;28;20026;-16
2022/10/04 03:10:11;;;;;;;23.95;17.33;;;14.60;83.60;;;;;;5034578;28;20029;-15
2022/10/04 03:12:40;;;;;;;21.30;16.15;;;14.60;83.20;;;;;;5034159;28;20482;-16
2022/10/04 03:15:11;;;;;;;21.63;15.15;;;14.60;83.30;;;;;;5016206;28;20018;-15
2022/10/04 03:17:42;;;;;;;24.13;17.10;;;14.60;82.90;;;;;;5034258;28;20466;-15
2022/10/04 03:20:13;;;;;;;21.52;15.40;;;14.60;82.70;;;;;;5034139;28;20025;-15
2022/10/04 03:22:44;;;;;;;19.90;14.98;;;14.60;82.60;;;;;;5034138;28;20025;-15
2022/10/04 03:25:29;;;;;;;20.85;15.98;;;14.60;82.50;;;;;;5034223;28;20056;-16
2022/10/04 03:28:00;;;;;;;24.65;17.20;;;14.60;82.40;;;;;;5034351;28;20026;-16
2022/10/04 03:30:26;;;;;;;18.02;13.13;;;14.60;82.60;;;;;;5033822;28;20419;-17
2022/10/04 03:32:53;;;;;;;19.98;13.73;;;14.60;82.40;;;;;;5034078;28;20026;-16
2022/10/04 03:35:39;;;;;;;16.58;12.55;;;14.60;82.50;;;;;;5034188;28;20029;-15
2022/10/04 03:38:08;;;;;;;15.35;11.13;;;14.60;82.30;;;;;;5034184;28;20027;-16
2022/10/04 03:40:36;;;;;;;16.15;12.27;;;14.60;82.50;;;;;;5034095;28;20055;-16
2022/10/04 03:43:04;;;;;;;20.52;15.80;;;14.70;82.40;;;;;;5033832;28;20025;-16
2022/10/04 03:45:33;;;;;;;15.18;11.88;;;14.70;82.30;;;;;;5033603;28;20041;-15
2022/10/04 03:48:08;;;;;;;22.25;16.75;;;14.70;82.50;;;;;;5033658;28;20040;-15
2022/10/04 03:50:45;;;;;;;22.20;14.63;;;14.70;83.30;;;;;;5033618;28;20038;-15
2022/10/04 03:53:29;;;;;;;20.73;13.48;;;14.70;83.10;;;;;;5034713;28;20026;-15
2022/10/04 03:55:57;;;;;;;17.05;12.95;;;14.80;82.80;;;;;;5033576;28;20029;-17
2022/10/04 03:58:25;;;;;;;17.85;13.15;;;14.80;83.00;;;;;;5033812;28;20120;-17
2022/10/04 04:00:57;;;;;;;14.80;11.35;;;14.80;83.10;;;;;;5033152;28;20041;-15
2022/10/04 04:03:27;;;;;;;12.25;8.95;;;14.80;82.70;;;;;;5033408;28;20548;-15
2022/10/04 04:05:59;;;;;;;15.57;11.57;;;14.80;82.40;;;;;;5033927;28;20017;-15
2022/10/04 04:08:28;;;;;;;20.42;12.85;;;14.80;82.30;;;;;;5033879;28;20033;-15
2022/10/04 04:10:57;;;;;;;15.35;10.88;;;14.80;82.90;;;;;;5032952;28;20057;-16
2022/10/04 04:13:51;;;;;;;14.32;10.13;;;14.80;82.60;;;;;;5015479;28;20048;-15
2022/10/04 04:16:24;;;;;;;13.18;9.65;;;14.80;82.10;;;;;;5033271;28;20030;-15
2022/10/04 04:18:53;;;;;;;14.88;10.90;;;14.80;82.10;;;;;;5033350;28;20021;-16
2022/10/04 04:21:23;;;;;;;12.75;9.90;;;14.80;82.30;;;;;;5033460;28;20021;-16
2022/10/04 04:24:04;;;;;;;12.98;8.98;;;14.80;82.10;;;;;;5033157;28;20493;-16
2022/10/04 04:26:49;;;;;;;13.35;10.02;;;14.70;81.90;;;;;;5033388;28;20392;-15
2022/10/04 04:29:22;;;;;;;18.75;9.43;;;14.70;82.00;;;;;;5032814;28;20035;-15
2022/10/04 04:31:53;;;;;;;;;;;14.60;82.10;;;;;;5033230;28;20448;-14
2022/10/04 04:34:28;;;;;;;14.57;9.25;;;14.60;82.40;;;;;;5033158;28;19963;-15
2022/10/04 04:37:09;;;;;;;12.00;8.93;;;14.60;82.10;;;;;;5032861;28;20520;-17
2022/10/04 04:39:43;;;;;;;12.52;8.95;;;14.50;81.90;;;;;;5032974;28;20025;-16
2022/10/04 04:42:09;;;;;;;10.73;8.15;;;14.50;82.00;;;;;;5032979;28;20405;-15
2022/10/04 04:44:52;;;;;;;10.70;7.80;;;14.40;81.90;;;;;;5032899;28;20481;-16
2022/10/04 04:47:41;;;;;;;10.38;7.57;;;14.50;81.80;;;;;;5032761;28;20096;-15
2022/10/04 04:50:18;;;;;;;11.48;8.55;;;14.40;81.70;;;;;;5033446;28;20036;-15
2022/10/04 04:52:49;;;;;;;9.63;7.32;;;14.40;81.60;;;;;;5032882;28;20385;-15
2022/10/04 04:55:26;;;;;;;10.73;7.35;;;14.40;81.60;;;;;;5032906;28;20021;-17
2022/10/04 04:57:55;;;;;;;8.75;6.38;;;14.40;81.40;;;;;;5032827;28;20025;-15
2022/10/04 05:00:29;;;;;;;10.65;7.30;;;14.40;81.30;;;;;;5032619;28;20025;-15
2022/10/04 05:02:58;;;;;;;12.35;8.77;;;14.40;81.20;;;;;;5032838;28;20032;-15
2022/10/04 05:05:30;;;;;;;11.48;7.43;;;14.50;81.20;;;;;;5032694;28;20058;-17
2022/10/04 05:08:24;;;;;;;13.23;8.05;;;14.50;81.00;;;;;;5033076;28;20030;-16
2022/10/04 05:11:11;;;;;;;9.15;6.50;;;14.50;80.80;;;;;;5032658;28;20478;-16
2022/10/04 05:13:45;;;;;;;9.55;6.90;;;14.50;80.80;;;;;;5033037;28;20075;-15
2022/10/04 05:16:26;;;;;;;11.02;7.18;;;14.50;80.80;;;;;;5032599;28;20037;-16
2022/10/04 05:18:58;;;;;;;9.13;6.38;;;14.60;80.80;;;;;;5032626;28;20018;-15
2022/10/04 05:21:28;;;;;;;9.25;6.57;;;14.60;80.70;;;;;;5032885;28;20025;-15
2022/10/04 05:23:56;;;;;;;8.52;6.35;;;14.70;80.60;;;;;;5032573;28;20021;-15
2022/10/04 05:26:28;;;;;;;10.10;7.10;;;14.70;80.30;;;;;;5032778;28;20026;-15
2022/10/04 05:28:58;;;;;;;11.63;7.50;;;14.80;80.20;;;;;;5032572;28;20021;-15
2022/10/04 05:31:44;;;;;;;9.80;7.13;;;14.80;80.40;;;;;;5032474;28;20026;-15
2022/10/04 05:34:23;;;;;;;10.07;7.18;;;14.90;80.20;;;;;;5032531;28;20043;-15
2022/10/04 05:36:57;;;;;;;12.55;6.82;;;14.90;80.10;;;;;;5032323;28;20052;-17
2022/10/04 05:39:40;;;;;;;8.60;6.60;;;14.90;79.70;;;;;;5032833;28;20028;-16
2022/10/04 05:42:23;;;;;;;8.80;6.23;;;14.90;79.60;;;;;;5032927;28;20036;-16
2022/10/04 05:44:56;;;;;;;9.13;6.25;;;14.90;79.50;;;;;;5033287;28;20253;-15
2022/10/04 05:47:27;;;;;;;8.65;6.28;;;14.90;79.40;;;;;;5036402;28;20577;-16
2022/10/04 05:49:59;;;;;;;10.07;5.85;;;15.10;79.30;;;;;;5036190;28;20108;-16
2022/10/04 05:52:38;;;;;;;10.63;6.32;;;15.10;79.00;;;;;;5035879;28;20022;-16
2022/10/04 05:55:26;;;;;;;12.27;6.00;;;15.20;78.30;;;;;;5035656;28;20033;-16
2022/10/04 05:58:20;;;;;;;9.27;5.30;;;15.30;78.30;;;;;;5036022;28;20084;-16
2022/10/04 06:00:49;;;;;;;;;;;15.40;78.30;;;;;;5035996;28;20198;-15
2022/10/04 06:03:43;;;;;;;6.35;5.07;;;15.40;77.90;;;;;;5035911;28;19906;-15
2022/10/04 06:06:18;;;;;;;;;;;15.50;77.70;;;;;;5036059;28;20033;-15
2022/10/04 06:09:08;;;;;;;7.65;5.10;;;15.60;77.90;;;;;;5035594;28;19905;-15
2022/10/04 06:11:49;;;;;;;9.80;6.32;;;15.60;77.00;;;;;;5035351;28;20053;-15
2022/10/04 06:14:39;;;;;;;12.68;7.15;;;15.60;77.00;;;;;;5035538;28;20026;-17
2022/10/04 06:17:19;;;;;;;8.48;5.57;;;15.70;77.00;;;;;;5035693;28;20025;-15
2022/10/04 06:20:24;;;;;;;7.50;5.18;;;15.80;77.00;;;;;;5035602;28;20021;-17
2022/10/04 06:22:58;;;;;;;8.55;5.22;;;15.90;76.70;;;;;;4954978;29;20067;-16
2022/10/04 06:25:27;;;;;;;9.27;4.68;;;16.00;74.80;;;;;;4955135;29;20023;-15
2022/10/04 06:28:14;;;;;;;7.53;4.60;;;16.10;75.30;;;;;;4955210;29;20126;-15
2022/10/04 06:31:07;;;;;;;9.88;4.90;;;16.20;74.80;;;;;;4954898;29;20043;-15
2022/10/04 06:33:41;;;;;;;8.43;3.80;;;16.30;74.50;;;;;;4955411;29;20098;-15
2022/10/04 06:36:38;;;;;;;7.30;4.10;;;16.30;73.80;;;;;;4954983;29;20081;-18
2022/10/04 06:39:29;;;;;;;7.78;4.47;;;16.40;72.10;;;;;;4954242;29;20647;-16
2022/10/04 06:42:10;;;;;;;7.32;3.88;;;16.50;72.20;;;;;;4955238;29;20027;-16
2022/10/04 06:44:55;;;;;;;4.40;3.33;;;16.60;73.10;;;;;;4954691;29;20051;-16
2022/10/04 06:47:59;;;;;;;5.18;3.33;;;16.70;73.20;;;;;;4954855;29;20036;-16
2022/10/04 06:50:44;;;;;;;;;;;16.90;73.00;;;;;;4916828;29;20036;-15
2022/10/04 06:53:23;;;;;;;7.50;4.03;;;17.00;71.90;;;;;;4916380;29;19915;-16
2022/10/04 06:56:01;;;;;;;4.97;3.40;;;17.10;72.20;;;;;;4916308;29;20038;-16
2022/10/04 06:59:05;;;;;;;7.63;3.95;;;17.30;71.90;;;;;;4919273;28;20028;-14
2022/10/04 07:01:33;;;;;;;6.30;3.93;;;17.40;69.90;;;;;;4926557;28;20094;-15
2022/10/04 07:04:25;;;;;;;6.13;3.45;;;17.40;70.30;;;;;;4973775;28;20550;-15
2022/10/04 07:07:34;;;;;;;7.72;3.65;;;17.40;69.90;;;;;;4951419;28;20074;-16
2022/10/04 07:10:18;;;;;;;7.05;3.50;;;17.40;70.30;;;;;;4974004;28;20042;-15
2022/10/04 07:13:08;;;;;;;4.93;3.20;;;17.50;69.70;;;;;;4973513;28;20549;-16
2022/10/04 07:16:02;;;;;;;6.15;3.55;;;17.50;69.90;;;;;;4973995;28;20490;-15
2022/10/04 07:18:31;;;;;;;;;;;17.70;69.40;;;;;;4973861;28;20623;-15
2022/10/04 07:21:11;;;;;;;8.15;3.42;;;17.70;67.80;;;;;;4973275;28;20409;-17
2022/10/04 07:23:55;;;;;;;5.50;2.90;;;17.90;68.80;;;;;;4984451;28;20036;-15
2022/10/04 07:26:46;;;;;;;6.15;3.20;;;17.90;67.90;;;;;;5034125;28;20021;-16
2022/10/04 07:29:30;;;;;;;5.35;3.22;;;18.00;66.50;;;;;;5033737;28;20034;-15
2022/10/04 07:32:05;;;;;;;5.40;3.20;;;18.10;65.50;;;;;;5034356;28;20056;-16
2022/10/04 07:34:44;;;;;;;8.18;3.40;;;18.20;67.00;;;;;;5034075;28;20547;-16
2022/10/04 07:37:13;;;;;;;5.70;3.50;;;18.30;67.20;;;;;;5034006;28;20033;-15
2022/10/04 07:39:43;;;;;;;5.32;3.20;;;18.30;66.20;;;;;;5016236;28;20547;-15
2022/10/04 07:42:25;;;;;;;5.07;3.78;;;18.40;67.10;;;;;;5034176;28;20040;-15
2022/10/04 07:45:02;;;;;;;4.93;2.90;;;18.40;64.90;;;;;;5033605;28;20025;-15
2022/10/04 07:47:29;;;;;;;4.45;3.10;;;18.40;66.30;;;;;;5033960;28;20042;-16
2022/10/04 07:49:57;;;;;;;4.15;2.97;;;18.40;66.60;;;;;;5034367;28;20436;-16
2022/10/04 07:52:43;;;;;;;7.88;3.15;;;18.50;66.20;;;;;;5034223;28;20036;-15
2022/10/04 07:55:46;;;;;;;6.75;3.33;;;18.70;66.20;;;;;;5033357;28;20025;-15
2022/10/04 07:58:42;;;;;;;5.07;3.38;;;18.90;66.00;;;;;;5033482;28;20036;-15
2022/10/04 08:01:43;;;;;;;5.70;3.42;;;19.20;64.40;;;;;;5033454;28;20405;-15
2022/10/04 08:04:39;;;;;;;4.68;3.20;;;19.40;64.90;;;;;;4953419;29;20032;-15
2022/10/04 08:07:16;;;;;;;6.70;3.13;;;19.50;64.70;;;;;;4953322;28;20044;-15
2022/10/04 08:09:53;;;;;;;7.63;3.45;;;19.80;64.80;;;;;;4953270;29;20037;-16
2022/10/04 08:12:34;;;;;;;5.57;3.05;;;20.00;64.70;;;;;;4953064;29;20134;-16
2022/10/04 08:15:34;;;;;;;6.70;3.17;;;20.40;61.60;;;;;;4953151;29;20028;-15
2022/10/04 08:18:22;;;;;;;5.18;3.03;;;20.70;62.50;;;;;;4953709;29;20055;-15
2022/10/04 08:20:58;;;;;;;3.60;2.75;;;20.90;61.00;;;;;;4953119;29;20058;-16
2022/10/04 08:23:42;;;;;;;3.70;2.53;;;21.10;60.50;;;;;;4953072;29;20027;-16
2022/10/04 08:26:34;;;;;;;3.78;2.72;;;21.50;59.30;;;;;;4953127;29;20046;-15
2022/10/04 08:32:03;;;;;;;4.80;3.00;;;21.90;55.70;;;;;;4953274;29;20130;-13
2022/10/04 08:34:58;;;;;;;5.70;2.70;;;22.00;55.10;;;;;;4953270;29;20035;-15
2022/10/04 08:37:29;;;;;;;3.42;2.63;;;21.90;54.40;;;;;;4953027;29;20019;-15
2022/10/04 08:40:33;;;;;;;5.13;2.85;;;22.00;56.80;;;;;;4988830;28;20026;-14
2022/10/04 08:43:21;;;;;;;8.10;2.70;;;22.00;53.20;;;;;;5013346;28;20021;-15
2022/10/04 08:45:56;;;;;;;3.88;2.65;;;22.10;55.70;;;;;;5013152;28;20026;-14
2022/10/04 08:48:45;;;;;;;3.92;2.67;;;22.30;56.60;;;;;;5013428;28;20023;-15
2022/10/04 08:51:50;;;;;;;5.82;2.97;;;22.40;52.70;;;;;;5012878;28;20092;-15
2022/10/04 08:54:36;;;;;;;7.65;3.05;;;22.30;54.50;;;;;;5013511;28;20026;-15
2022/10/04 08:57:53;;;;;;;5.90;2.80;;;22.40;54.70;;;;;;5013043;28;20022;-15
2022/10/04 09:00:42;;;;;;;7.93;3.10;;;22.40;53.80;;;;;;4969269;28;20034;-15
2022/10/04 09:03:25;;;;;;;6.25;3.40;;;22.50;52.60;;;;;;5011727;28;20030;-15
2022/10/04 09:05:56;;;;;;;4.78;3.10;;;22.50;53.20;;;;;;5013367;28;20509;-15
2022/10/04 09:08:37;;;;;;;5.50;3.00;;;22.40;54.00;;;;;;5013094;28;20029;-14
2022/10/04 09:11:44;;;;;;;6.35;2.97;;;22.40;53.00;;;;;;5014626;28;20485;-15
2022/10/04 09:14:30;;;;;;;5.43;3.20;;;22.40;54.00;;;;;;4952678;29;20443;-15
2022/10/04 09:17:19;;;;;;;6.30;3.40;;;22.30;55.10;;;;;;4952423;29;20032;-15
2022/10/04 09:20:12;;;;;;;7.45;3.28;;;22.20;54.00;;;;;;4955523;28;20031;-15
2022/10/04 09:23:06;;;;;;;7.35;3.20;;;22.30;54.90;;;;;;4956302;29;20067;-15
2022/10/04 09:25:40;;;;;;;10.30;3.50;;;22.20;55.70;;;;;;4956299;29;20023;-15
2022/10/04 09:28:19;;;;;;;6.25;3.50;;;22.20;55.70;;;;;;4956843;29;20035;-15
2022/10/04 09:31:19;;;;;;;6.40;3.40;;;22.00;55.40;;;;;;4956074;29;20508;-14
2022/10/04 09:33:52;;;;;;;4.88;2.95;;;22.10;56.50;;;;;;4956448;29;20118;-15
2022/10/04 09:36:39;;;;;;;6.45;3.03;;;22.10;55.30;;;;;;4956317;29;20035;-15
2022/10/04 09:39:29;;;;;;;4.82;2.97;;;22.10;55.00;;;;;;4955837;29;20054;-15
2022/10/04 09:42:08;;;;;;;6.47;3.92;;;22.00;53.70;;;;;;4956418;29;20109;-15
2022/10/04 09:45:07;;;;;;;4.97;3.35;;;22.00;54.20;;;;;;4956116;29;20062;-15
2022/10/04 09:47:45;;;;;;;9.63;3.53;;;22.00;53.90;;;;;;4955755;29;20090;-15
2022/10/04 09:50:38;;;;;;;5.85;3.60;;;22.00;53.80;;;;;;5009374;28;20112;-15
2022/10/04 09:53:26;;;;;;;5.15;2.90;;;22.00;56.50;;;;;;5035822;28;20489;-15
2022/10/04 09:56:03;;;;;;;4.72;3.05;;;22.20;55.60;;;;;;5036164;28;20049;-14
2022/10/04 09:58:57;;;;;;;7.35;3.42;;;22.20;52.60;;;;;;5036039;28;20056;-15
2022/10/04 10:02:17;;;;;;;7.75;3.47;;;22.20;54.00;;;;;;5035776;28;20052;-15
2022/10/04 10:05:36;;;;;;;4.93;3.63;;;22.10;53.30;;;;;;4955556;29;20487;-14
2022/10/04 10:08:29;;;;;;;6.88;3.55;;;22.20;55.00;;;;;;4936519;29;20039;-17
2022/10/04 10:14:25;;;;;;;4.55;3.53;;;22.50;53.60;;;;;;5032142;28;20045;-16
2022/10/04 10:17:25;;;;;;;9.98;4.28;;;22.70;54.00;;;;;;5035407;28;20030;-15
2022/10/04 10:20:30;;;;;;;5.57;3.15;;;22.80;54.30;;;;;;5035671;28;20056;-15
2022/10/04 10:23:26;;;;;;;8.30;3.90;;;23.00;52.90;;;;;;5035158;28;20512;-15
2022/10/04 10:26:16;;;;;;;6.28;3.60;;;23.30;51.80;;;;;;5017585;28;20120;-15
2022/10/04 10:29:23;;;;;;;5.30;3.63;;;23.40;51.60;;;;;;5035837;28;20029;-15
2022/10/04 10:32:09;;;;;;;9.05;3.47;;;23.40;52.90;;;;;;4973760;28;20046;-15
2022/10/04 10:34:53;;;;;;;5.50;3.60;;;23.60;52.20;;;;;;5035179;28;20022;-16
2022/10/04 10:37:37;;;;;;;;;;;23.70;53.20;;;;;;5035438;28;20029;-16
2022/10/04 10:40:22;;;;;;;9.50;4.07;;;23.70;50.90;;;;;;5035600;28;19912;-14
2022/10/04 10:43:28;;;;;;;4.93;3.70;;;23.90;52.80;;;;;;5034724;28;20041;-15
2022/10/04 10:46:20;;;;;;;6.50;3.67;;;23.90;52.60;;;;;;5035030;28;20389;-14
2022/10/04 10:49:04;;;;;;;5.40;4.00;;;24.00;52.80;;;;;;5035110;28;20474;-14
2022/10/04 10:51:45;;;;;;;5.25;3.55;;;24.10;51.70;;;;;;5034752;28;20508;-14
2022/10/04 10:54:37;;;;;;;7.07;4.68;;;24.20;52.20;;;;;;5034687;28;20489;-15
2022/10/04 10:57:16;;;;;;;7.90;4.18;;;24.40;52.60;;;;;;5034560;28;20032;-16
2022/10/04 11:00:01;;;;;;;7.57;4.25;;;24.40;52.10;;;;;;5034688;28;20060;-15
2022/10/04 11:02:43;;;;;;;9.60;5.38;;;24.40;52.60;;;;;;5034699;28;20030;-15
2022/10/04 11:05:40;;;;;;;6.00;4.03;;;24.40;52.00;;;;;;5034468;28;20035;-15
2022/10/04 11:08:28;;;;;;;7.00;5.05;;;24.40;51.20;;;;;;5034663;28;20116;-16
2022/10/04 11:11:21;;;;;;;7.30;4.60;;;24.40;51.80;;;;;;5034120;28;20504;-15
2022/10/04 11:14:10;;;;;;;7.95;5.00;;;24.30;51.90;;;;;;5034936;28;20026;-14
2022/10/04 11:17:02;;;;;;;7.00;4.88;;;24.20;50.90;;;;;;5034233;28;20038;-14
2022/10/04 11:19:53;;;;;;;8.68;4.43;;;24.10;52.00;;;;;;5034227;28;20394;-15
2022/10/04 11:22:43;;;;;;;6.90;4.82;;;24.10;52.70;;;;;;5034490;28;20404;-15
2022/10/04 11:25:41;;;;;;;7.28;4.82;;;24.20;53.10;;;;;;5033955;28;20445;-14
2022/10/04 11:28:15;;;;;;;8.60;5.10;;;24.30;52.50;;;;;;5033595;28;20117;-15
2022/10/04 11:31:16;;;;;;;6.82;3.85;;;24.40;53.80;;;;;;5033831;28;20076;-15
2022/10/04 11:34:07;;;;;;;8.20;4.70;;;24.40;52.00;;;;;;5034005;28;20024;-15
2022/10/04 11:36:55;;;;;;;6.97;4.05;;;24.40;52.20;;;;;;5033834;28;20029;-15
2022/10/04 11:39:35;;;;;;;8.20;5.32;;;24.40;52.80;;;;;;5033891;28;20048;-14
2022/10/04 11:42:23;;;;;;;7.78;5.03;;;24.50;52.90;;;;;;5016176;28;20030;-14
2022/10/04 11:45:35;;;;;;;8.40;5.55;;;24.80;52.40;;;;;;5033915;28;20022;-15
2022/10/04 11:48:38;;;;;;;8.48;5.15;;;25.00;51.90;;;;;;4953660;29;20556;-15
2022/10/04 11:51:34;;;;;;;8.02;4.68;;;25.00;51.90;;;;;;4953381;29;20039;-15
2022/10/04 11:54:40;;;;;;;7.10;4.20;;;25.10;51.90;;;;;;4953584;29;20039;-15
2022/10/04 11:57:43;;;;;;;12.40;6.53;;;25.40;50.90;;;;;;4953310;29;20570;-15
2022/10/04 12:00:19;;;;;;;7.70;5.33;;;25.60;49.40;;;;;;4953492;29;20495;-15
2022/10/04 12:02:51;;;;;;;6.88;4.72;;;25.50;51.00;;;;;;4953412;29;20527;-15
2022/10/04 12:05:51;;;;;;;7.28;5.30;;;25.40;51.10;;;;;;4953373;29;20039;-15
2022/10/04 12:08:40;;;;;;;6.70;5.10;;;25.40;51.50;;;;;;4953302;29;20424;-14
2022/10/04 12:12:35;;;;;;;7.68;4.40;;;25.40;51.90;;;;;;4953006;29;20058;-15
2022/10/04 12:14:42;;;;;;;7.40;4.93;;;25.40;51.30;;;;;;4953724;29;20046;-15
2022/10/04 12:17:28;;;;;;;6.10;4.53;;;25.50;50.40;;;;;;4953269;29;20043;-16
2022/10/04 12:20:27;;;;;;;8.82;4.80;;;25.60;51.70;;;;;;4953863;29;20151;-14
2022/10/04 12:23:12;;;;;;;4.68;3.95;;;25.90;49.50;;;;;;4976051;28;20041;-15
2022/10/04 12:25:43;;;;;;;5.93;4.05;;;26.00;50.90;;;;;;5033076;28;20033;-14
2022/10/04 12:28:16;;;;;;;6.25;4.18;;;26.10;50.90;;;;;;5033401;28;20032;-15
2022/10/04 12:30:45;;;;;;;5.97;4.15;;;26.30;50.70;;;;;;5033153;28;20025;-14
2022/10/04 12:33:31;;;;;;;6.85;4.40;;;26.40;50.50;;;;;;5032853;28;20038;-14
2022/10/04 12:36:27;;;;;;;7.35;5.07;;;26.50;50.00;;;;;;5033095;28;20033;-15
2022/10/04 12:39:05;;;;;;;8.20;4.72;;;26.60;49.70;;;;;;5033498;28;20029;-14
2022/10/04 12:41:58;;;;;;;6.25;4.93;;;26.70;49.30;;;;;;5033468;28;20033;-14
2022/10/04 12:44:40;;;;;;;7.35;4.80;;;26.90;49.10;;;;;;5033364;28;20018;-14
2022/10/04 12:47:24;;;;;;;6.95;4.50;;;26.90;49.30;;;;;;5032977;28;20036;-15
2022/10/04 12:50:18;;;;;;;7.68;5.30;;;26.90;49.50;;;;;;5033235;28;20032;-14
2022/10/04 12:53:20;;;;;;;5.35;4.25;;;26.80;49.30;;;;;;5032889;28;20519;-16
2022/10/04 12:56:06;;;;;;;6.15;4.28;;;26.80;49.60;;;;;;5034207;28;20034;-15
2022/10/04 12:58:50;;;;;;;5.00;4.47;;;26.70;50.00;;;;;;5037305;28;20025;-15
2022/10/04 13:01:23;;;;;;;6.10;4.97;;;26.70;50.10;;;;;;5036887;28;20047;-15
2022/10/04 13:04:16;;;;;;;7.13;4.80;;;26.80;49.40;;;;;;5037180;28;20026;-16
2022/10/04 13:07:11;;;;;;;8.48;6.05;;;26.90;48.70;;;;;;5037000;28;20060;-15
2022/10/04 13:09:55;;;;;;;7.88;4.82;;;26.80;48.80;;;;;;5036986;28;20087;-16
2022/10/04 13:12:39;;;;;;;6.13;4.85;;;26.70;48.90;;;;;;5036494;28;20091;-15
2022/10/04 13:15:23;;;;;;;5.13;4.55;;;26.60;49.20;;;;;;5036421;28;20038;-16
2022/10/04 13:18:19;;;;;;;6.22;4.32;;;26.40;49.80;;;;;;5036551;28;20036;-15
2022/10/04 13:21:05;;;;;;;5.05;4.05;;;26.40;49.80;;;;;;5019260;28;20028;-16
2022/10/04 13:23:55;;;;;;;6.45;4.90;;;26.40;50.40;;;;;;5036517;28;20040;-16
2022/10/04 13:26:40;;;;;;;6.63;5.00;;;26.50;49.80;;;;;;5036434;28;20509;-15
2022/10/04 13:29:25;;;;;;;7.68;4.55;;;26.60;49.20;;;;;;5036429;28;20057;-15
2022/10/04 13:32:00;;;;;;;6.63;4.75;;;26.70;48.90;;;;;;5036254;28;20025;-16
2022/10/04 13:34:52;;;;;;;8.40;4.70;;;26.70;48.80;;;;;;5036599;28;20028;-15
2022/10/04 13:37:54;;;;;;;8.57;4.70;;;26.70;48.60;;;;;;5036244;28;20037;-16
2022/10/04 13:40:58;;;;;;;5.80;4.40;;;26.70;48.30;;;;;;5036157;28;20120;-15
2022/10/04 13:43:43;;;;;;;6.47;4.63;;;26.70;48.70;;;;;;5036113;28;20022;-15
2022/10/04 13:46:31;;;;;;;6.63;4.28;;;26.70;48.60;;;;;;5035984;28;20101;-14
2022/10/04 13:49:41;;;;;;;7.35;4.40;;;26.90;48.20;;;;;;5035837;28;20025;-16
2022/10/04 13:59:23;;;;;;;7.47;5.00;;;27.60;47.10;;;;;;5015397;28;20099;-15
2022/10/04 14:02:18;;;;;;;9.35;5.85;;;27.80;47.10;;;;;;5035940;28;20529;-14
2022/10/04 14:05:21;;;;;;;9.95;7.00;;;27.90;47.00;;;;;;5035224;28;20397;-15
2022/10/04 14:08:16;;;;;;;6.97;5.13;;;27.70;46.80;;;;;;5035949;28;20033;-15
2022/10/04 14:11:00;;;;;;;10.65;6.32;;;27.60;47.50;;;;;;5035667;28;20030;-15
2022/10/04 14:14:02;;;;;;;9.57;5.60;;;27.50;47.70;;;;;;5036029;28;20041;-15
2022/10/04 14:16:56;;;;;;;6.22;4.90;;;27.40;47.60;;;;;;5035847;28;20389;-15